sensor_id;sensor_type;location;lat;lon;timestamp;P1;durP1;ratioP1;P2;durP2;ratioP2
17604;SDS011;8921;50.964;6.800;2023-04-06T00:01:31;22.77;;;14.83;;
17604;SDS011;8921;50.964;6.800;2023-04-06T00:03:59;21.00;;;14.73;;
17604;SDS011;8921;50.964;6.800;2023-04-06T00:06:27;25.67;;;14.13;;
17604;SDS011;8921;50.964;6.800;2023-04-06T00:08:55;20.63;;;12.20;;
17604;SDS011;8921;50.964;6.800;2023-04-06T00:11:24;21.80;;;12.80;;
17604;SDS011;8921;50.964;6.800;2023-04-06T00:13:52;20.40;;;12.70;;
17604;SDS011;8921;50.964;6.800;2023-04-06T00:16:20;25.00;;;14.43;;
17604;SDS011;8921;50.964;6.800;2023-04-06T00:18:49;27.93;;;16.40;;
17604;SDS011;8921;50.964;6.800;2023-04-06T00:21:17;20.57;;;13.50;;
17604;SDS011;8921;50.964;6.800;2023-04-06T00:23:45;20.20;;;13.23;;
17604;SDS011;8921;50.964;6.800;2023-04-06T00:26:14;20.03;;;13.50;;
17604;SDS011;8921;50.964;6.800;2023-04-06T00:28:42;23.07;;;14.00;;
17604;SDS011;8921;50.964;6.800;2023-04-06T00:31:10;26.60;;;15.93;;
17604;SDS011;8921;50.964;6.800;2023-04-06T00:33:38;27.83;;;17.20;;
17604;SDS011;8921;50.964;6.800;2023-04-06T00:36:07;25.60;;;14.93;;
17604;SDS011;8921;50.964;6.800;2023-04-06T00:38:35;23.17;;;15.40;;
17604;SDS011;8921;50.964;6.800;2023-04-06T00:41:03;24.53;;;14.03;;
17604;SDS011;8921;50.964;6.800;2023-04-06T00:43:32;22.97;;;14.27;;
17604;SDS011;8921;50.964;6.800;2023-04-06T00:46:00;26.17;;;13.97;;
17604;SDS011;8921;50.964;6.800;2023-04-06T00:48:28;23.43;;;14.20;;
17604;SDS011;8921;50.964;6.800;2023-04-06T00:50:57;20.00;;;14.00;;
17604;SDS011;8921;50.964;6.800;2023-04-06T00:53:25;26.80;;;16.90;;
17604;SDS011;8921;50.964;6.800;2023-04-06T00:55:53;25.53;;;14.20;;
17604;SDS011;8921;50.964;6.800;2023-04-06T00:58:22;25.27;;;14.57;;
17604;SDS011;8921;50.964;6.800;2023-04-06T01:00:50;22.83;;;14.00;;
17604;SDS011;8921;50.964;6.800;2023-04-06T01:03:18;28.67;;;13.20;;
17604;SDS011;8921;50.964;6.800;2023-04-06T01:05:47;25.70;;;14.87;;
17604;SDS011;8921;50.964;6.800;2023-04-06T01:08:15;31.70;;;19.50;;
17604;SDS011;8921;50.964;6.800;2023-04-06T01:10:43;25.80;;;16.23;;
17604;SDS011;8921;50.964;6.800;2023-04-06T01:13:12;29.07;;;17.23;;
17604;SDS011;8921;50.964;6.800;2023-04-06T01:15:40;24.00;;;14.97;;
17604;SDS011;8921;50.964;6.800;2023-04-06T01:18:08;25.00;;;14.87;;
17604;SDS011;8921;50.964;6.800;2023-04-06T01:20:37;24.03;;;15.40;;
17604;SDS011;8921;50.964;6.800;2023-04-06T01:23:05;27.73;;;12.77;;
17604;SDS011;8921;50.964;6.800;2023-04-06T01:25:34;24.47;;;13.67;;
17604;SDS011;8921;50.964;6.800;2023-04-06T01:28:02;22.80;;;14.43;;
17604;SDS011;8921;50.964;6.800;2023-04-06T01:30:30;28.57;;;15.33;;
17604;SDS011;8921;50.964;6.800;2023-04-06T01:32:59;24.07;;;14.03;;
17604;SDS011;8921;50.964;6.800;2023-04-06T01:35:27;25.57;;;14.57;;
17604;SDS011;8921;50.964;6.800;2023-04-06T01:37:55;23.93;;;14.13;;
17604;SDS011;8921;50.964;6.800;2023-04-06T01:40:24;21.37;;;13.80;;
17604;SDS011;8921;50.964;6.800;2023-04-06T01:42:52;27.37;;;15.97;;
17604;SDS011;8921;50.964;6.800;2023-04-06T01:45:20;21.00;;;14.30;;
17604;SDS011;8921;50.964;6.800;2023-04-06T01:47:48;25.03;;;13.90;;
17604;SDS011;8921;50.964;6.800;2023-04-06T01:50:17;26.77;;;15.27;;
17604;SDS011;8921;50.964;6.800;2023-04-06T01:52:45;26.03;;;15.60;;
17604;SDS011;8921;50.964;6.800;2023-04-06T01:55:13;25.10;;;14.97;;
17604;SDS011;8921;50.964;6.800;2023-04-06T01:57:42;24.43;;;15.03;;
17604;SDS011;8921;50.964;6.800;2023-04-06T02:00:10;21.83;;;14.20;;
17604;SDS011;8921;50.964;6.800;2023-04-06T02:02:39;26.07;;;15.37;;
17604;SDS011;8921;50.964;6.800;2023-04-06T02:05:07;24.80;;;14.80;;
17604;SDS011;8921;50.964;6.800;2023-04-06T02:07:35;23.20;;;13.90;;
17604;SDS011;8921;50.964;6.800;2023-04-06T02:10:04;22.90;;;15.20;;
17604;SDS011;8921;50.964;6.800;2023-04-06T02:12:32;24.53;;;14.23;;
17604;SDS011;8921;50.964;6.800;2023-04-06T02:15:01;26.60;;;15.60;;
17604;SDS011;8921;50.964;6.800;2023-04-06T02:17:29;24.23;;;15.47;;
17604;SDS011;8921;50.964;6.800;2023-04-06T02:19:57;24.83;;;15.33;;
17604;SDS011;8921;50.964;6.800;2023-04-06T02:22:26;25.17;;;15.27;;
17604;SDS011;8921;50.964;6.800;2023-04-06T02:24:54;23.17;;;12.10;;
17604;SDS011;8921;50.964;6.800;2023-04-06T02:27:22;23.80;;;15.30;;
17604;SDS011;8921;50.964;6.800;2023-04-06T02:29:51;24.87;;;14.80;;
17604;SDS011;8921;50.964;6.800;2023-04-06T02:32:19;24.67;;;14.10;;
17604;SDS011;8921;50.964;6.800;2023-04-06T02:34:47;23.73;;;14.83;;
17604;SDS011;8921;50.964;6.800;2023-04-06T02:37:15;22.37;;;14.73;;
17604;SDS011;8921;50.964;6.800;2023-04-06T02:39:44;24.17;;;15.73;;
17604;SDS011;8921;50.964;6.800;2023-04-06T02:42:12;25.90;;;16.37;;
17604;SDS011;8921;50.964;6.800;2023-04-06T02:44:41;28.90;;;16.60;;
17604;SDS011;8921;50.964;6.800;2023-04-06T02:47:09;28.13;;;15.37;;
17604;SDS011;8921;50.964;6.800;2023-04-06T02:49:37;24.57;;;14.50;;
17604;SDS011;8921;50.964;6.800;2023-04-06T02:52:05;25.30;;;14.70;;
17604;SDS011;8921;50.964;6.800;2023-04-06T02:54:34;26.67;;;15.50;;
17604;SDS011;8921;50.964;6.800;2023-04-06T02:57:02;24.83;;;14.80;;
17604;SDS011;8921;50.964;6.800;2023-04-06T02:59:30;22.60;;;14.30;;
17604;SDS011;8921;50.964;6.800;2023-04-06T03:01:59;23.87;;;16.67;;
17604;SDS011;8921;50.964;6.800;2023-04-06T03:04:27;32.83;;;17.70;;
17604;SDS011;8921;50.964;6.800;2023-04-06T03:06:55;27.27;;;14.03;;
17604;SDS011;8921;50.964;6.800;2023-04-06T03:09:23;25.83;;;16.57;;
17604;SDS011;8921;50.964;6.800;2023-04-06T03:11:52;66.00;;;15.13;;
17604;SDS011;8921;50.964;6.800;2023-04-06T03:14:20;26.40;;;16.57;;
17604;SDS011;8921;50.964;6.800;2023-04-06T03:16:49;26.17;;;17.07;;
17604;SDS011;8921;50.964;6.800;2023-04-06T03:19:17;30.30;;;17.80;;
17604;SDS011;8921;50.964;6.800;2023-04-06T03:21:45;30.20;;;16.67;;
17604;SDS011;8921;50.964;6.800;2023-04-06T03:24:13;31.43;;;17.33;;
17604;SDS011;8921;50.964;6.800;2023-04-06T03:26:42;26.10;;;17.07;;
17604;SDS011;8921;50.964;6.800;2023-04-06T03:29:10;26.27;;;17.07;;
17604;SDS011;8921;50.964;6.800;2023-04-06T03:31:38;28.70;;;17.10;;
17604;SDS011;8921;50.964;6.800;2023-04-06T03:34:07;25.03;;;17.03;;
17604;SDS011;8921;50.964;6.800;2023-04-06T03:36:35;31.57;;;16.43;;
17604;SDS011;8921;50.964;6.800;2023-04-06T03:39:03;28.30;;;18.33;;
17604;SDS011;8921;50.964;6.800;2023-04-06T03:41:32;27.47;;;17.40;;
17604;SDS011;8921;50.964;6.800;2023-04-06T03:44:00;26.80;;;16.50;;
17604;SDS011;8921;50.964;6.800;2023-04-06T03:46:28;27.07;;;16.27;;
17604;SDS011;8921;50.964;6.800;2023-04-06T03:48:57;27.50;;;16.07;;
17604;SDS011;8921;50.964;6.800;2023-04-06T03:51:25;26.57;;;15.37;;
17604;SDS011;8921;50.964;6.800;2023-04-06T03:53:53;24.37;;;15.40;;
17604;SDS011;8921;50.964;6.800;2023-04-06T03:56:21;22.97;;;14.40;;
17604;SDS011;8921;50.964;6.800;2023-04-06T03:58:50;30.43;;;15.70;;
17604;SDS011;8921;50.964;6.800;2023-04-06T04:01:18;22.87;;;14.93;;
17604;SDS011;8921;50.964;6.800;2023-04-06T04:03:46;23.10;;;14.53;;
17604;SDS011;8921;50.964;6.800;2023-04-06T04:06:15;23.57;;;14.97;;
17604;SDS011;8921;50.964;6.800;2023-04-06T04:08:43;22.00;;;14.53;;
17604;SDS011;8921;50.964;6.800;2023-04-06T04:11:11;26.80;;;16.37;;
17604;SDS011;8921;50.964;6.800;2023-04-06T04:13:40;25.23;;;14.77;;
17604;SDS011;8921;50.964;6.800;2023-04-06T04:16:08;32.10;;;17.03;;
17604;SDS011;8921;50.964;6.800;2023-04-06T04:18:36;22.47;;;15.90;;
17604;SDS011;8921;50.964;6.800;2023-04-06T04:21:05;28.73;;;14.90;;
17604;SDS011;8921;50.964;6.800;2023-04-06T04:23:33;33.17;;;17.53;;
17604;SDS011;8921;50.964;6.800;2023-04-06T04:26:01;33.30;;;19.77;;
17604;SDS011;8921;50.964;6.800;2023-04-06T04:28:30;25.55;;;16.87;;
17604;SDS011;8921;50.964;6.800;2023-04-06T04:30:58;34.30;;;17.40;;
17604;SDS011;8921;50.964;6.800;2023-04-06T04:33:26;29.50;;;14.47;;
17604;SDS011;8921;50.964;6.800;2023-04-06T04:35:54;26.80;;;17.57;;
17604;SDS011;8921;50.964;6.800;2023-04-06T04:38:23;27.30;;;15.27;;
17604;SDS011;8921;50.964;6.800;2023-04-06T04:40:51;27.47;;;16.90;;
17604;SDS011;8921;50.964;6.800;2023-04-06T04:43:19;28.83;;;17.20;;
17604;SDS011;8921;50.964;6.800;2023-04-06T04:45:48;33.33;;;16.70;;
17604;SDS011;8921;50.964;6.800;2023-04-06T04:48:16;28.90;;;15.63;;
17604;SDS011;8921;50.964;6.800;2023-04-06T04:50:44;28.50;;;15.73;;
17604;SDS011;8921;50.964;6.800;2023-04-06T04:53:13;42.40;;;18.53;;
17604;SDS011;8921;50.964;6.800;2023-04-06T04:55:41;21.43;;;14.47;;
17604;SDS011;8921;50.964;6.800;2023-04-06T04:58:09;25.23;;;16.57;;
17604;SDS011;8921;50.964;6.800;2023-04-06T05:00:37;26.43;;;14.80;;
17604;SDS011;8921;50.964;6.800;2023-04-06T05:03:06;32.13;;;17.40;;
17604;SDS011;8921;50.964;6.800;2023-04-06T05:05:34;26.90;;;14.83;;
17604;SDS011;8921;50.964;6.800;2023-04-06T05:08:02;29.27;;;17.07;;
17604;SDS011;8921;50.964;6.800;2023-04-06T05:10:31;25.63;;;16.23;;
17604;SDS011;8921;50.964;6.800;2023-04-06T05:12:59;30.33;;;16.20;;
17604;SDS011;8921;50.964;6.800;2023-04-06T05:15:27;26.53;;;16.80;;
17604;SDS011;8921;50.964;6.800;2023-04-06T05:17:56;25.70;;;14.80;;
17604;SDS011;8921;50.964;6.800;2023-04-06T05:20:24;24.03;;;15.30;;
17604;SDS011;8921;50.964;6.800;2023-04-06T05:22:52;25.33;;;15.10;;
17604;SDS011;8921;50.964;6.800;2023-04-06T05:25:21;23.70;;;16.30;;
17604;SDS011;8921;50.964;6.800;2023-04-06T05:27:49;27.30;;;15.80;;
17604;SDS011;8921;50.964;6.800;2023-04-06T05:30:17;26.00;;;15.53;;
17604;SDS011;8921;50.964;6.800;2023-04-06T05:32:45;39.30;;;17.57;;
17604;SDS011;8921;50.964;6.800;2023-04-06T05:35:14;23.70;;;16.00;;
17604;SDS011;8921;50.964;6.800;2023-04-06T05:37:42;21.57;;;14.70;;
17604;SDS011;8921;50.964;6.800;2023-04-06T05:40:10;24.70;;;13.90;;
17604;SDS011;8921;50.964;6.800;2023-04-06T05:42:39;25.77;;;15.97;;
17604;SDS011;8921;50.964;6.800;2023-04-06T05:45:07;20.70;;;13.73;;
17604;SDS011;8921;50.964;6.800;2023-04-06T05:47:36;24.53;;;14.37;;
17604;SDS011;8921;50.964;6.800;2023-04-06T05:50:04;20.63;;;14.63;;
17604;SDS011;8921;50.964;6.800;2023-04-06T05:52:33;21.87;;;15.70;;
17604;SDS011;8921;50.964;6.800;2023-04-06T05:55:01;23.80;;;15.03;;
17604;SDS011;8921;50.964;6.800;2023-04-06T05:57:29;30.43;;;13.57;;
17604;SDS011;8921;50.964;6.800;2023-04-06T05:59:57;23.30;;;13.53;;
17604;SDS011;8921;50.964;6.800;2023-04-06T06:02:26;24.00;;;13.47;;
17604;SDS011;8921;50.964;6.800;2023-04-06T06:04:54;20.13;;;14.23;;
17604;SDS011;8921;50.964;6.800;2023-04-06T06:07:22;19.17;;;11.87;;
17604;SDS011;8921;50.964;6.800;2023-04-06T06:09:50;19.70;;;11.60;;
17604;SDS011;8921;50.964;6.800;2023-04-06T06:12:19;29.00;;;16.87;;
17604;SDS011;8921;50.964;6.800;2023-04-06T06:14:47;26.37;;;17.00;;
17604;SDS011;8921;50.964;6.800;2023-04-06T06:17:15;20.13;;;13.07;;
17604;SDS011;8921;50.964;6.800;2023-04-06T06:19:44;18.37;;;12.10;;
17604;SDS011;8921;50.964;6.800;2023-04-06T06:22:12;30.63;;;13.63;;
17604;SDS011;8921;50.964;6.800;2023-04-06T06:24:40;18.50;;;12.70;;
17604;SDS011;8921;50.964;6.800;2023-04-06T06:27:09;19.90;;;11.87;;
17604;SDS011;8921;50.964;6.800;2023-04-06T06:29:37;20.43;;;11.83;;
17604;SDS011;8921;50.964;6.800;2023-04-06T06:32:05;18.47;;;11.70;;
17604;SDS011;8921;50.964;6.800;2023-04-06T06:34:34;19.37;;;10.97;;
17604;SDS011;8921;50.964;6.800;2023-04-06T06:37:02;15.90;;;11.07;;
17604;SDS011;8921;50.964;6.800;2023-04-06T06:39:30;17.90;;;10.97;;
17604;SDS011;8921;50.964;6.800;2023-04-06T06:41:59;19.03;;;11.60;;
17604;SDS011;8921;50.964;6.800;2023-04-06T06:44:27;24.23;;;15.13;;
17604;SDS011;8921;50.964;6.800;2023-04-06T06:46:55;22.43;;;12.53;;
17604;SDS011;8921;50.964;6.800;2023-04-06T06:49:23;15.30;;;10.43;;
17604;SDS011;8921;50.964;6.800;2023-04-06T06:51:52;18.57;;;11.23;;
17604;SDS011;8921;50.964;6.800;2023-04-06T06:54:20;15.37;;;9.53;;
17604;SDS011;8921;50.964;6.800;2023-04-06T06:56:48;16.63;;;10.60;;
17604;SDS011;8921;50.964;6.800;2023-04-06T06:59:17;17.40;;;10.17;;
17604;SDS011;8921;50.964;6.800;2023-04-06T07:01:45;17.13;;;10.10;;
17604;SDS011;8921;50.964;6.800;2023-04-06T07:04:13;20.57;;;11.50;;
17604;SDS011;8921;50.964;6.800;2023-04-06T07:06:42;15.50;;;10.80;;
17604;SDS011;8921;50.964;6.800;2023-04-06T07:09:10;17.43;;;10.60;;
17604;SDS011;8921;50.964;6.800;2023-04-06T07:11:38;13.97;;;8.60;;
17604;SDS011;8921;50.964;6.800;2023-04-06T07:14:07;16.07;;;10.00;;
17604;SDS011;8921;50.964;6.800;2023-04-06T07:16:35;17.90;;;10.23;;
17604;SDS011;8921;50.964;6.800;2023-04-06T07:19:03;17.40;;;10.40;;
17604;SDS011;8921;50.964;6.800;2023-04-06T07:21:32;27.27;;;12.20;;
17604;SDS011;8921;50.964;6.800;2023-04-06T07:24:00;20.10;;;11.30;;
17604;SDS011;8921;50.964;6.800;2023-04-06T07:26:28;15.50;;;9.00;;
17604;SDS011;8921;50.964;6.800;2023-04-06T07:28:57;16.37;;;11.53;;
17604;SDS011;8921;50.964;6.800;2023-04-06T07:31:25;19.30;;;11.40;;
17604;SDS011;8921;50.964;6.800;2023-04-06T07:33:53;16.63;;;10.13;;
17604;SDS011;8921;50.964;6.800;2023-04-06T07:36:22;32.50;;;18.10;;
17604;SDS011;8921;50.964;6.800;2023-04-06T07:38:50;23.70;;;12.43;;
17604;SDS011;8921;50.964;6.800;2023-04-06T07:41:20;19.53;;;11.10;;
17604;SDS011;8921;50.964;6.800;2023-04-06T07:43:48;19.83;;;12.80;;
17604;SDS011;8921;50.964;6.800;2023-04-06T07:46:16;18.90;;;10.80;;
17604;SDS011;8921;50.964;6.800;2023-04-06T07:48:45;19.77;;;12.17;;
17604;SDS011;8921;50.964;6.800;2023-04-06T07:51:13;18.33;;;9.90;;
17604;SDS011;8921;50.964;6.800;2023-04-06T07:53:41;17.53;;;10.00;;
17604;SDS011;8921;50.964;6.800;2023-04-06T07:56:10;17.67;;;12.60;;
17604;SDS011;8921;50.964;6.800;2023-04-06T07:58:38;19.63;;;12.10;;
17604;SDS011;8921;50.964;6.800;2023-04-06T08:01:06;20.17;;;13.03;;
17604;SDS011;8921;50.964;6.800;2023-04-06T08:03:35;16.70;;;11.30;;
17604;SDS011;8921;50.964;6.800;2023-04-06T08:06:03;19.90;;;10.70;;
17604;SDS011;8921;50.964;6.800;2023-04-06T08:08:31;16.70;;;10.57;;
17604;SDS011;8921;50.964;6.800;2023-04-06T08:10:59;18.33;;;10.60;;
17604;SDS011;8921;50.964;6.800;2023-04-06T08:13:28;21.43;;;12.10;;
17604;SDS011;8921;50.964;6.800;2023-04-06T08:15:56;17.67;;;12.00;;
17604;SDS011;8921;50.964;6.800;2023-04-06T08:18:24;19.53;;;11.20;;
17604;SDS011;8921;50.964;6.800;2023-04-06T08:20:54;23.37;;;11.80;;
17604;SDS011;8921;50.964;6.800;2023-04-06T08:23:21;17.57;;;10.10;;
17604;SDS011;8921;50.964;6.800;2023-04-06T08:25:49;17.10;;;10.67;;
17604;SDS011;8921;50.964;6.800;2023-04-06T08:28:18;15.30;;;11.03;;
17604;SDS011;8921;50.964;6.800;2023-04-06T08:30:46;25.00;;;13.70;;
17604;SDS011;8921;50.964;6.800;2023-04-06T08:33:14;23.23;;;12.60;;
17604;SDS011;8921;50.964;6.800;2023-04-06T08:35:42;22.73;;;11.50;;
17604;SDS011;8921;50.964;6.800;2023-04-06T08:38:11;25.03;;;11.17;;
17604;SDS011;8921;50.964;6.800;2023-04-06T08:40:39;15.80;;;10.50;;
17604;SDS011;8921;50.964;6.800;2023-04-06T08:43:08;23.83;;;11.03;;
17604;SDS011;8921;50.964;6.800;2023-04-06T08:45:36;19.97;;;12.10;;
17604;SDS011;8921;50.964;6.800;2023-04-06T08:48:04;22.20;;;11.20;;
17604;SDS011;8921;50.964;6.800;2023-04-06T08:50:33;18.70;;;10.67;;
17604;SDS011;8921;50.964;6.800;2023-04-06T08:53:01;19.53;;;11.70;;
17604;SDS011;8921;50.964;6.800;2023-04-06T08:55:29;18.70;;;11.20;;
17604;SDS011;8921;50.964;6.800;2023-04-06T08:57:57;17.77;;;11.17;;
17604;SDS011;8921;50.964;6.800;2023-04-06T09:00:26;21.60;;;10.40;;
17604;SDS011;8921;50.964;6.800;2023-04-06T09:02:54;21.57;;;12.40;;
17604;SDS011;8921;50.964;6.800;2023-04-06T09:05:23;18.40;;;11.07;;
17604;SDS011;8921;50.964;6.800;2023-04-06T09:07:51;18.33;;;11.47;;
17604;SDS011;8921;50.964;6.800;2023-04-06T09:10:19;23.13;;;12.27;;
17604;SDS011;8921;50.964;6.800;2023-04-06T09:12:47;22.40;;;11.80;;
17604;SDS011;8921;50.964;6.800;2023-04-06T09:15:19;32.77;;;14.93;;
17604;SDS011;8921;50.964;6.800;2023-04-06T09:17:47;20.73;;;11.97;;
17604;SDS011;8921;50.964;6.800;2023-04-06T09:20:15;24.40;;;13.00;;
17604;SDS011;8921;50.964;6.800;2023-04-06T09:22:43;20.10;;;12.10;;
17604;SDS011;8921;50.964;6.800;2023-04-06T09:25:17;19.83;;;10.83;;
17604;SDS011;8921;50.964;6.800;2023-04-06T09:27:40;22.80;;;12.17;;
17604;SDS011;8921;50.964;6.800;2023-04-06T09:30:09;21.97;;;12.60;;
17604;SDS011;8921;50.964;6.800;2023-04-06T09:35:14;25.50;;;12.50;;
17604;SDS011;8921;50.964;6.800;2023-04-06T09:37:43;22.73;;;13.40;;
17604;SDS011;8921;50.964;6.800;2023-04-06T09:40:10;21.50;;;12.00;;
17604;SDS011;8921;50.964;6.800;2023-04-06T09:42:42;19.70;;;12.10;;
17604;SDS011;8921;50.964;6.800;2023-04-06T09:45:10;21.83;;;12.00;;
17604;SDS011;8921;50.964;6.800;2023-04-06T09:47:39;22.67;;;13.40;;
17604;SDS011;8921;50.964;6.800;2023-04-06T09:50:07;18.90;;;11.10;;
17604;SDS011;8921;50.964;6.800;2023-04-06T09:55:18;18.00;;;11.90;;
17604;SDS011;8921;50.964;6.800;2023-04-06T09:58:06;18.50;;;12.23;;
17604;SDS011;8921;50.964;6.800;2023-04-06T10:00:44;21.13;;;12.83;;
17604;SDS011;8921;50.964;6.800;2023-04-06T10:05:57;17.20;;;11.53;;
17604;SDS011;8921;50.964;6.800;2023-04-06T10:08:28;23.50;;;12.93;;
17604;SDS011;8921;50.964;6.800;2023-04-06T10:10:56;21.97;;;10.50;;
17604;SDS011;8921;50.964;6.800;2023-04-06T10:13:25;20.37;;;10.47;;
17604;SDS011;8921;50.964;6.800;2023-04-06T10:15:54;21.43;;;10.77;;
17604;SDS011;8921;50.964;6.800;2023-04-06T10:18:22;27.77;;;12.70;;
17604;SDS011;8921;50.964;6.800;2023-04-06T10:23:46;21.03;;;10.83;;
17604;SDS011;8921;50.964;6.800;2023-04-06T10:26:16;21.10;;;11.10;;
17604;SDS011;8921;50.964;6.800;2023-04-06T10:28:42;21.57;;;13.50;;
17604;SDS011;8921;50.964;6.800;2023-04-06T10:31:10;24.73;;;13.03;;
17604;SDS011;8921;50.964;6.800;2023-04-06T10:33:38;19.97;;;12.90;;
17604;SDS011;8921;50.964;6.800;2023-04-06T10:36:22;26.07;;;11.93;;
17604;SDS011;8921;50.964;6.800;2023-04-06T10:38:43;18.87;;;11.50;;
17604;SDS011;8921;50.964;6.800;2023-04-06T10:41:11;20.63;;;10.33;;
17604;SDS011;8921;50.964;6.800;2023-04-06T10:43:40;21.03;;;13.43;;
17604;SDS011;8921;50.964;6.800;2023-04-06T10:46:09;23.80;;;12.57;;
17604;SDS011;8921;50.964;6.800;2023-04-06T10:51:11;24.17;;;12.90;;
17604;SDS011;8921;50.964;6.800;2023-04-06T10:53:41;18.83;;;10.90;;
17604;SDS011;8921;50.964;6.800;2023-04-06T10:56:11;20.23;;;12.20;;
17604;SDS011;8921;50.964;6.800;2023-04-06T10:58:43;22.00;;;11.43;;
17604;SDS011;8921;50.964;6.800;2023-04-06T11:01:07;19.43;;;10.90;;
17604;SDS011;8921;50.964;6.800;2023-04-06T11:03:42;21.80;;;12.47;;
17604;SDS011;8921;50.964;6.800;2023-04-06T11:06:03;22.40;;;11.30;;
17604;SDS011;8921;50.964;6.800;2023-04-06T11:08:32;19.67;;;11.07;;
17604;SDS011;8921;50.964;6.800;2023-04-06T11:11:04;22.80;;;11.37;;
17604;SDS011;8921;50.964;6.800;2023-04-06T11:13:38;23.10;;;12.50;;
17604;SDS011;8921;50.964;6.800;2023-04-06T11:16:05;20.90;;;10.57;;
17604;SDS011;8921;50.964;6.800;2023-04-06T11:18:34;23.97;;;12.40;;
17604;SDS011;8921;50.964;6.800;2023-04-06T11:21:02;23.33;;;12.67;;
17604;SDS011;8921;50.964;6.800;2023-04-06T11:23:30;19.90;;;9.93;;
17604;SDS011;8921;50.964;6.800;2023-04-06T11:25:59;17.67;;;10.53;;
17604;SDS011;8921;50.964;6.800;2023-04-06T11:28:27;20.13;;;11.20;;
17604;SDS011;8921;50.964;6.800;2023-04-06T11:30:55;20.90;;;11.53;;
17604;SDS011;8921;50.964;6.800;2023-04-06T11:33:23;20.73;;;11.60;;
17604;SDS011;8921;50.964;6.800;2023-04-06T11:35:52;18.27;;;10.37;;
17604;SDS011;8921;50.964;6.800;2023-04-06T11:38:20;19.80;;;11.00;;
17604;SDS011;8921;50.964;6.800;2023-04-06T11:40:52;21.23;;;10.67;;
17604;SDS011;8921;50.964;6.800;2023-04-06T11:43:17;19.40;;;10.37;;
17604;SDS011;8921;50.964;6.800;2023-04-06T11:45:45;17.63;;;10.80;;
17604;SDS011;8921;50.964;6.800;2023-04-06T11:48:19;19.60;;;11.13;;
17604;SDS011;8921;50.964;6.800;2023-04-06T11:50:47;21.97;;;11.33;;
17604;SDS011;8921;50.964;6.800;2023-04-06T11:53:16;23.90;;;10.87;;
17604;SDS011;8921;50.964;6.800;2023-04-06T11:55:44;19.37;;;11.10;;
17604;SDS011;8921;50.964;6.800;2023-04-06T11:58:12;24.80;;;10.60;;
17604;SDS011;8921;50.964;6.800;2023-04-06T12:00:41;24.00;;;14.23;;
17604;SDS011;8921;50.964;6.800;2023-04-06T12:03:09;19.57;;;11.07;;
17604;SDS011;8921;50.964;6.800;2023-04-06T12:05:37;19.03;;;11.00;;
17604;SDS011;8921;50.964;6.800;2023-04-06T12:08:05;20.73;;;10.40;;
17604;SDS011;8921;50.964;6.800;2023-04-06T12:10:34;19.70;;;9.70;;
17604;SDS011;8921;50.964;6.800;2023-04-06T12:13:02;21.13;;;10.50;;
17604;SDS011;8921;50.964;6.800;2023-04-06T12:15:30;17.90;;;11.37;;
17604;SDS011;8921;50.964;6.800;2023-04-06T12:17:58;24.13;;;12.23;;
17604;SDS011;8921;50.964;6.800;2023-04-06T12:20:27;18.90;;;10.50;;
17604;SDS011;8921;50.964;6.800;2023-04-06T12:22:55;24.80;;;10.87;;
17604;SDS011;8921;50.964;6.800;2023-04-06T12:25:23;20.97;;;10.87;;
17604;SDS011;8921;50.964;6.800;2023-04-06T12:27:52;18.73;;;9.90;;
17604;SDS011;8921;50.964;6.800;2023-04-06T12:30:20;28.77;;;10.40;;
17604;SDS011;8921;50.964;6.800;2023-04-06T12:32:49;15.53;;;8.60;;
17604;SDS011;8921;50.964;6.800;2023-04-06T12:35:16;19.33;;;10.13;;
17604;SDS011;8921;50.964;6.800;2023-04-06T12:37:45;17.40;;;9.20;;
17604;SDS011;8921;50.964;6.800;2023-04-06T12:40:13;18.03;;;9.30;;
17604;SDS011;8921;50.964;6.800;2023-04-06T12:42:41;14.97;;;8.87;;
17604;SDS011;8921;50.964;6.800;2023-04-06T12:45:10;14.27;;;7.53;;
17604;SDS011;8921;50.964;6.800;2023-04-06T12:47:38;11.30;;;6.97;;
17604;SDS011;8921;50.964;6.800;2023-04-06T12:50:06;15.87;;;6.40;;
17604;SDS011;8921;50.964;6.800;2023-04-06T12:52:35;11.87;;;6.27;;
17604;SDS011;8921;50.964;6.800;2023-04-06T12:55:03;9.97;;;5.73;;
17604;SDS011;8921;50.964;6.800;2023-04-06T12:57:32;7.70;;;4.87;;
17604;SDS011;8921;50.964;6.800;2023-04-06T13:00:00;9.80;;;5.90;;
17604;SDS011;8921;50.964;6.800;2023-04-06T13:02:29;10.20;;;5.90;;
17604;SDS011;8921;50.964;6.800;2023-04-06T13:04:56;10.50;;;6.50;;
17604;SDS011;8921;50.964;6.800;2023-04-06T13:07:25;11.17;;;7.00;;
17604;SDS011;8921;50.964;6.800;2023-04-06T13:09:53;11.67;;;6.80;;
17604;SDS011;8921;50.964;6.800;2023-04-06T13:12:21;12.37;;;7.57;;
17604;SDS011;8921;50.964;6.800;2023-04-06T13:14:50;16.93;;;9.43;;
17604;SDS011;8921;50.964;6.800;2023-04-06T13:17:18;12.90;;;8.80;;
17604;SDS011;8921;50.964;6.800;2023-04-06T13:19:46;10.53;;;5.80;;
17604;SDS011;8921;50.964;6.800;2023-04-06T13:22:14;12.23;;;7.20;;
17604;SDS011;8921;50.964;6.800;2023-04-06T13:24:43;12.03;;;7.37;;
17604;SDS011;8921;50.964;6.800;2023-04-06T13:27:11;15.40;;;6.90;;
17604;SDS011;8921;50.964;6.800;2023-04-06T13:29:39;10.27;;;5.93;;
17604;SDS011;8921;50.964;6.800;2023-04-06T13:32:08;14.87;;;6.33;;
17604;SDS011;8921;50.964;6.800;2023-04-06T13:34:36;13.20;;;6.73;;
17604;SDS011;8921;50.964;6.800;2023-04-06T13:37:04;13.37;;;6.20;;
17604;SDS011;8921;50.964;6.800;2023-04-06T13:39:32;13.60;;;6.80;;
17604;SDS011;8921;50.964;6.800;2023-04-06T13:42:01;15.73;;;7.67;;
17604;SDS011;8921;50.964;6.800;2023-04-06T13:44:29;13.47;;;7.50;;
17604;SDS011;8921;50.964;6.800;2023-04-06T13:46:57;13.07;;;7.43;;
17604;SDS011;8921;50.964;6.800;2023-04-06T13:49:26;15.00;;;7.30;;
17604;SDS011;8921;50.964;6.800;2023-04-06T13:51:54;14.07;;;6.80;;
17604;SDS011;8921;50.964;6.800;2023-04-06T13:54:22;17.30;;;6.93;;
17604;SDS011;8921;50.964;6.800;2023-04-06T13:56:51;15.97;;;7.13;;
17604;SDS011;8921;50.964;6.800;2023-04-06T13:59:19;13.90;;;7.37;;
17604;SDS011;8921;50.964;6.800;2023-04-06T14:01:47;20.40;;;10.63;;
17604;SDS011;8921;50.964;6.800;2023-04-06T14:04:15;16.57;;;9.10;;
17604;SDS011;8921;50.964;6.800;2023-04-06T14:17:47;12.93;;;7.43;;
17604;SDS011;8921;50.964;6.800;2023-04-06T14:20:16;12.37;;;7.00;;
17604;SDS011;8921;50.964;6.800;2023-04-06T14:22:44;14.90;;;6.60;;
17604;SDS011;8921;50.964;6.800;2023-04-06T14:25:12;14.00;;;7.30;;
17604;SDS011;8921;50.964;6.800;2023-04-06T14:27:41;11.00;;;5.83;;
17604;SDS011;8921;50.964;6.800;2023-04-06T14:30:09;15.30;;;7.80;;
17604;SDS011;8921;50.964;6.800;2023-04-06T14:32:37;17.87;;;6.50;;
17604;SDS011;8921;50.964;6.800;2023-04-06T14:35:06;11.60;;;6.10;;
17604;SDS011;8921;50.964;6.800;2023-04-06T14:37:34;11.53;;;6.10;;
17604;SDS011;8921;50.964;6.800;2023-04-06T14:40:03;12.30;;;6.67;;
17604;SDS011;8921;50.964;6.800;2023-04-06T14:42:31;13.67;;;6.37;;
17604;SDS011;8921;50.964;6.800;2023-04-06T14:44:59;11.40;;;6.33;;
17604;SDS011;8921;50.964;6.800;2023-04-06T14:47:28;11.77;;;6.97;;
17604;SDS011;8921;50.964;6.800;2023-04-06T14:49:56;13.17;;;6.70;;
17604;SDS011;8921;50.964;6.800;2023-04-06T14:52:24;11.67;;;7.00;;
17604;SDS011;8921;50.964;6.800;2023-04-06T14:54:53;11.73;;;7.93;;
17604;SDS011;8921;50.964;6.800;2023-04-06T14:57:21;12.57;;;7.77;;
17604;SDS011;8921;50.964;6.800;2023-04-06T14:59:52;11.97;;;7.70;;
17604;SDS011;8921;50.964;6.800;2023-04-06T15:02:18;13.87;;;7.53;;
17604;SDS011;8921;50.964;6.800;2023-04-06T15:04:46;13.17;;;7.80;;
17604;SDS011;8921;50.964;6.800;2023-04-06T15:07:14;13.17;;;7.53;;